sensor_id;sensor_type;location;lat;lon;timestamp;P1;durP1;ratioP1;P2;durP2;ratioP2
36799;SDS011;22752;51.960;5.886;2022-07-03T00:00:35;3.20;;;2.30;;
36799;SDS011;22752;51.960;5.886;2022-07-03T00:03:00;3.33;;;2.25;;
36799;SDS011;22752;51.960;5.886;2022-07-03T00:05:26;3.70;;;2.10;;
36799;SDS011;22752;51.960;5.886;2022-07-03T00:07:52;4.45;;;2.10;;
36799;SDS011;22752;51.960;5.886;2022-07-03T00:10:17;4.93;;;2.35;;
36799;SDS011;22752;51.960;5.886;2022-07-03T00:12:43;3.60;;;2.30;;
36799;SDS011;22752;51.960;5.886;2022-07-03T00:15:09;7.03;;;2.58;;
36799;SDS011;22752;51.960;5.886;2022-07-03T00:17:35;6.43;;;2.30;;
36799;SDS011;22752;51.960;5.886;2022-07-03T00:20:00;4.07;;;2.38;;
36799;SDS011;22752;51.960;5.886;2022-07-03T00:22:26;7.95;;;2.83;;
36799;SDS011;22752;51.960;5.886;2022-07-03T00:24:58;3.13;;;2.42;;
36799;SDS011;22752;51.960;5.886;2022-07-03T00:27:28;3.53;;;2.28;;
36799;SDS011;22752;51.960;5.886;2022-07-03T00:30:01;3.67;;;2.40;;
36799;SDS011;22752;51.960;5.886;2022-07-03T00:32:28;3.78;;;2.25;;
36799;SDS011;22752;51.960;5.886;2022-07-03T00:34:55;3.08;;;2.25;;
36799;SDS011;22752;51.960;5.886;2022-07-03T00:37:22;4.78;;;2.10;;
36799;SDS011;22752;51.960;5.886;2022-07-03T00:39:49;3.65;;;2.33;;
36799;SDS011;22752;51.960;5.886;2022-07-03T00:42:15;3.15;;;2.40;;
36799;SDS011;22752;51.960;5.886;2022-07-03T00:44:43;3.03;;;2.20;;
36799;SDS011;22752;51.960;5.886;2022-07-03T00:47:14;2.40;;;2.05;;
36799;SDS011;22752;51.960;5.886;2022-07-03T00:49:43;5.47;;;2.50;;
36799;SDS011;22752;51.960;5.886;2022-07-03T00:52:12;4.40;;;2.28;;
36799;SDS011;22752;51.960;5.886;2022-07-03T00:54:42;4.10;;;2.38;;
36799;SDS011;22752;51.960;5.886;2022-07-03T00:57:13;3.28;;;2.30;;
36799;SDS011;22752;51.960;5.886;2022-07-03T00:59:40;4.32;;;2.33;;
36799;SDS011;22752;51.960;5.886;2022-07-03T01:02:07;4.18;;;2.42;;
36799;SDS011;22752;51.960;5.886;2022-07-03T01:04:49;3.25;;;2.47;;
36799;SDS011;22752;51.960;5.886;2022-07-03T01:07:25;2.92;;;2.42;;
36799;SDS011;22752;51.960;5.886;2022-07-03T01:10:03;2.80;;;2.50;;
36799;SDS011;22752;51.960;5.886;2022-07-03T01:15:52;3.75;;;2.58;;
36799;SDS011;22752;51.960;5.886;2022-07-03T01:21:08;2.72;;;2.40;;
36799;SDS011;22752;51.960;5.886;2022-07-03T01:26:29;3.58;;;2.50;;
36799;SDS011;22752;51.960;5.886;2022-07-03T01:28:59;2.67;;;2.40;;
36799;SDS011;22752;51.960;5.886;2022-07-03T01:31:33;4.90;;;2.05;;
36799;SDS011;22752;51.960;5.886;2022-07-03T01:34:03;3.97;;;2.40;;
36799;SDS011;22752;51.960;5.886;2022-07-03T01:36:35;6.60;;;3.07;;
36799;SDS011;22752;51.960;5.886;2022-07-03T01:39:05;5.95;;;2.95;;
36799;SDS011;22752;51.960;5.886;2022-07-03T01:41:33;4.43;;;2.80;;
36799;SDS011;22752;51.960;5.886;2022-07-03T01:44:00;3.45;;;2.38;;
36799;SDS011;22752;51.960;5.886;2022-07-03T01:46:30;6.13;;;2.88;;
36799;SDS011;22752;51.960;5.886;2022-07-03T01:48:57;5.18;;;2.45;;
36799;SDS011;22752;51.960;5.886;2022-07-03T01:51:24;5.15;;;2.50;;
36799;SDS011;22752;51.960;5.886;2022-07-03T01:53:51;5.32;;;2.72;;
36799;SDS011;22752;51.960;5.886;2022-07-03T01:56:18;6.25;;;3.20;;
36799;SDS011;22752;51.960;5.886;2022-07-03T01:58:47;5.25;;;2.80;;
36799;SDS011;22752;51.960;5.886;2022-07-03T02:09:14;11.73;;;3.53;;
36799;SDS011;22752;51.960;5.886;2022-07-03T02:11:47;3.63;;;2.72;;
36799;SDS011;22752;51.960;5.886;2022-07-03T02:14:16;7.60;;;3.50;;
36799;SDS011;22752;51.960;5.886;2022-07-03T02:16:49;5.88;;;2.78;;
36799;SDS011;22752;51.960;5.886;2022-07-03T02:22:20;3.65;;;3.10;;
36799;SDS011;22752;51.960;5.886;2022-07-03T02:25:05;4.60;;;2.97;;
36799;SDS011;22752;51.960;5.886;2022-07-03T02:30:20;3.50;;;3.20;;
36799;SDS011;22752;51.960;5.886;2022-07-03T02:32:49;5.30;;;3.05;;
36799;SDS011;22752;51.960;5.886;2022-07-03T02:35:26;4.78;;;3.13;;
36799;SDS011;22752;51.960;5.886;2022-07-03T02:40:26;7.63;;;3.20;;
36799;SDS011;22752;51.960;5.886;2022-07-03T02:43:18;3.20;;;2.42;;
36799;SDS011;22752;51.960;5.886;2022-07-03T02:45:49;4.53;;;2.70;;
36799;SDS011;22752;51.960;5.886;2022-07-03T02:48:33;4.40;;;2.90;;
36799;SDS011;22752;51.960;5.886;2022-07-03T02:51:10;3.50;;;2.88;;
36799;SDS011;22752;51.960;5.886;2022-07-03T02:53:47;3.15;;;2.85;;
36799;SDS011;22752;51.960;5.886;2022-07-03T02:56:34;4.47;;;3.13;;
36799;SDS011;22752;51.960;5.886;2022-07-03T02:59:18;4.22;;;3.00;;
36799;SDS011;22752;51.960;5.886;2022-07-03T03:02:03;5.68;;;3.10;;
36799;SDS011;22752;51.960;5.886;2022-07-03T03:04:34;5.22;;;2.97;;
36799;SDS011;22752;51.960;5.886;2022-07-03T03:07:13;3.42;;;3.10;;
36799;SDS011;22752;51.960;5.886;2022-07-03T03:09:41;5.13;;;3.10;;
36799;SDS011;22752;51.960;5.886;2022-07-03T03:12:11;3.72;;;2.70;;
36799;SDS011;22752;51.960;5.886;2022-07-03T03:14:41;5.20;;;2.80;;
36799;SDS011;22752;51.960;5.886;2022-07-03T03:17:25;5.72;;;3.10;;
36799;SDS011;22752;51.960;5.886;2022-07-03T03:19:59;3.03;;;2.70;;
36799;SDS011;22752;51.960;5.886;2022-07-03T03:25:10;3.80;;;2.90;;
36799;SDS011;22752;51.960;5.886;2022-07-03T03:27:36;4.72;;;2.85;;
36799;SDS011;22752;51.960;5.886;2022-07-03T03:30:03;3.50;;;2.80;;
36799;SDS011;22752;51.960;5.886;2022-07-03T03:32:33;5.00;;;3.03;;
36799;SDS011;22752;51.960;5.886;2022-07-03T03:35:01;3.63;;;2.80;;
36799;SDS011;22752;51.960;5.886;2022-07-03T03:37:27;3.65;;;2.80;;
36799;SDS011;22752;51.960;5.886;2022-07-03T03:39:53;2.85;;;2.63;;
36799;SDS011;22752;51.960;5.886;2022-07-03T03:42:19;7.55;;;2.70;;
36799;SDS011;22752;51.960;5.886;2022-07-03T03:44:44;4.50;;;2.47;;
36799;SDS011;22752;51.960;5.886;2022-07-03T03:50:35;3.03;;;2.50;;
36799;SDS011;22752;51.960;5.886;2022-07-03T03:53:00;3.72;;;2.47;;
36799;SDS011;22752;51.960;5.886;2022-07-03T03:55:35;7.65;;;2.78;;
36799;SDS011;22752;51.960;5.886;2022-07-03T03:58:08;3.38;;;2.60;;
36799;SDS011;22752;51.960;5.886;2022-07-03T04:00:39;4.20;;;2.72;;
36799;SDS011;22752;51.960;5.886;2022-07-03T04:03:05;2.80;;;2.45;;
36799;SDS011;22752;51.960;5.886;2022-07-03T04:05:30;3.50;;;2.60;;
36799;SDS011;22752;51.960;5.886;2022-07-03T04:07:56;4.47;;;2.45;;
36799;SDS011;22752;51.960;5.886;2022-07-03T04:10:22;2.90;;;2.40;;
36799;SDS011;22752;51.960;5.886;2022-07-03T04:12:48;5.72;;;3.00;;
36799;SDS011;22752;51.960;5.886;2022-07-03T04:15:14;3.05;;;2.58;;
36799;SDS011;22752;51.960;5.886;2022-07-03T04:17:39;3.42;;;2.45;;
36799;SDS011;22752;51.960;5.886;2022-07-03T04:20:05;2.85;;;2.28;;
36799;SDS011;22752;51.960;5.886;2022-07-03T04:22:31;4.22;;;2.40;;
36799;SDS011;22752;51.960;5.886;2022-07-03T04:24:56;4.47;;;2.60;;
36799;SDS011;22752;51.960;5.886;2022-07-03T04:27:22;4.60;;;2.20;;
36799;SDS011;22752;51.960;5.886;2022-07-03T04:29:48;4.75;;;2.10;;
36799;SDS011;22752;51.960;5.886;2022-07-03T04:32:13;3.05;;;2.00;;
36799;SDS011;22752;51.960;5.886;2022-07-03T04:34:42;3.20;;;2.20;;
36799;SDS011;22752;51.960;5.886;2022-07-03T04:37:13;2.75;;;2.03;;
36799;SDS011;22752;51.960;5.886;2022-07-03T04:39:39;6.05;;;2.47;;
36799;SDS011;22752;51.960;5.886;2022-07-03T04:42:05;2.55;;;1.98;;
36799;SDS011;22752;51.960;5.886;2022-07-03T04:44:30;2.80;;;2.10;;
36799;SDS011;22752;51.960;5.886;2022-07-03T04:46:56;4.45;;;2.58;;
36799;SDS011;22752;51.960;5.886;2022-07-03T04:49:22;2.20;;;2.00;;
36799;SDS011;22752;51.960;5.886;2022-07-03T04:51:50;4.00;;;2.35;;
36799;SDS011;22752;51.960;5.886;2022-07-03T04:54:18;4.03;;;2.25;;
36799;SDS011;22752;51.960;5.886;2022-07-03T04:56:44;3.65;;;2.35;;
36799;SDS011;22752;51.960;5.886;2022-07-03T04:59:09;4.07;;;2.88;;
36799;SDS011;22752;51.960;5.886;2022-07-03T05:01:38;3.53;;;2.38;;
36799;SDS011;22752;51.960;5.886;2022-07-03T05:04:04;3.75;;;2.65;;
36799;SDS011;22752;51.960;5.886;2022-07-03T05:06:32;6.15;;;3.30;;
36799;SDS011;22752;51.960;5.886;2022-07-03T05:08:57;4.53;;;3.10;;
36799;SDS011;22752;51.960;5.886;2022-07-03T05:11:23;5.50;;;2.75;;
36799;SDS011;22752;51.960;5.886;2022-07-03T05:13:48;6.05;;;2.97;;
36799;SDS011;22752;51.960;5.886;2022-07-03T05:16:14;4.75;;;3.15;;
36799;SDS011;22752;51.960;5.886;2022-07-03T05:18:40;6.03;;;2.92;;
36799;SDS011;22752;51.960;5.886;2022-07-03T05:21:05;5.07;;;2.55;;
36799;SDS011;22752;51.960;5.886;2022-07-03T05:23:31;4.90;;;2.30;;
36799;SDS011;22752;51.960;5.886;2022-07-03T05:25:57;7.07;;;2.15;;
36799;SDS011;22752;51.960;5.886;2022-07-03T05:28:25;3.53;;;2.00;;
36799;SDS011;22752;51.960;5.886;2022-07-03T05:30:51;4.40;;;2.00;;
36799;SDS011;22752;51.960;5.886;2022-07-03T05:33:34;5.20;;;2.10;;
36799;SDS011;22752;51.960;5.886;2022-07-03T05:36:00;3.20;;;2.20;;
36799;SDS011;22752;51.960;5.886;2022-07-03T05:38:26;4.50;;;2.20;;
36799;SDS011;22752;51.960;5.886;2022-07-03T05:41:21;4.20;;;1.85;;
36799;SDS011;22752;51.960;5.886;2022-07-03T05:43:47;5.72;;;2.08;;
36799;SDS011;22752;51.960;5.886;2022-07-03T05:46:12;3.72;;;1.80;;
36799;SDS011;22752;51.960;5.886;2022-07-03T05:48:38;3.60;;;1.60;;
36799;SDS011;22752;51.960;5.886;2022-07-03T05:51:07;5.93;;;2.45;;
36799;SDS011;22752;51.960;5.886;2022-07-03T05:53:35;3.20;;;1.77;;
36799;SDS011;22752;51.960;5.886;2022-07-03T05:56:01;8.73;;;2.53;;
36799;SDS011;22752;51.960;5.886;2022-07-03T05:58:30;4.72;;;2.40;;
36799;SDS011;22752;51.960;5.886;2022-07-03T06:00:55;4.80;;;2.40;;
36799;SDS011;22752;51.960;5.886;2022-07-03T06:03:21;5.07;;;2.20;;
36799;SDS011;22752;51.960;5.886;2022-07-03T06:05:49;5.05;;;2.38;;
36799;SDS011;22752;51.960;5.886;2022-07-03T06:08:15;5.00;;;2.03;;
36799;SDS011;22752;51.960;5.886;2022-07-03T06:10:40;6.78;;;2.00;;
36799;SDS011;22752;51.960;5.886;2022-07-03T06:13:06;3.70;;;1.55;;
36799;SDS011;22752;51.960;5.886;2022-07-03T06:15:33;4.07;;;1.90;;
36799;SDS011;22752;51.960;5.886;2022-07-03T06:17:58;7.35;;;1.70;;
36799;SDS011;22752;51.960;5.886;2022-07-03T06:20:24;5.57;;;1.73;;
36799;SDS011;22752;51.960;5.886;2022-07-03T06:22:50;4.82;;;1.77;;
36799;SDS011;22752;51.960;5.886;2022-07-03T06:25:15;4.60;;;1.88;;
36799;SDS011;22752;51.960;5.886;2022-07-03T06:27:41;3.88;;;1.85;;
36799;SDS011;22752;51.960;5.886;2022-07-03T06:30:07;4.68;;;1.70;;
36799;SDS011;22752;51.960;5.886;2022-07-03T06:32:34;5.00;;;1.70;;
36799;SDS011;22752;51.960;5.886;2022-07-03T06:34:59;5.85;;;1.52;;
36799;SDS011;22752;51.960;5.886;2022-07-03T06:37:25;5.50;;;1.88;;
36799;SDS011;22752;51.960;5.886;2022-07-03T06:39:51;4.07;;;1.60;;
36799;SDS011;22752;51.960;5.886;2022-07-03T06:42:16;4.93;;;1.73;;
36799;SDS011;22752;51.960;5.886;2022-07-03T06:44:42;5.35;;;1.83;;
36799;SDS011;22752;51.960;5.886;2022-07-03T06:47:09;4.10;;;1.67;;
36799;SDS011;22752;51.960;5.886;2022-07-03T06:49:35;5.38;;;1.75;;
36799;SDS011;22752;51.960;5.886;2022-07-03T06:52:01;7.07;;;1.98;;
36799;SDS011;22752;51.960;5.886;2022-07-03T06:54:27;3.42;;;1.60;;
36799;SDS011;22752;51.960;5.886;2022-07-03T06:56:52;4.55;;;1.70;;
36799;SDS011;22752;51.960;5.886;2022-07-03T06:59:18;4.53;;;1.50;;
36799;SDS011;22752;51.960;5.886;2022-07-03T07:01:44;3.47;;;1.63;;
36799;SDS011;22752;51.960;5.886;2022-07-03T07:04:10;5.03;;;1.60;;
36799;SDS011;22752;51.960;5.886;2022-07-03T07:06:36;2.70;;;1.40;;
36799;SDS011;22752;51.960;5.886;2022-07-03T07:09:02;7.75;;;1.80;;
36799;SDS011;22752;51.960;5.886;2022-07-03T07:11:28;4.40;;;1.45;;
36799;SDS011;22752;51.960;5.886;2022-07-03T07:13:54;3.67;;;1.33;;
36799;SDS011;22752;51.960;5.886;2022-07-03T07:16:20;5.43;;;1.50;;
36799;SDS011;22752;51.960;5.886;2022-07-03T07:18:45;3.80;;;1.30;;
36799;SDS011;22752;51.960;5.886;2022-07-03T07:21:11;3.20;;;1.50;;
36799;SDS011;22752;51.960;5.886;2022-07-03T07:23:37;3.70;;;1.38;;
36799;SDS011;22752;51.960;5.886;2022-07-03T07:26:03;4.63;;;1.50;;
36799;SDS011;22752;51.960;5.886;2022-07-03T07:28:29;3.08;;;1.35;;
36799;SDS011;22752;51.960;5.886;2022-07-03T07:30:55;3.08;;;1.20;;
36799;SDS011;22752;51.960;5.886;2022-07-03T07:33:22;4.40;;;2.00;;
36799;SDS011;22752;51.960;5.886;2022-07-03T07:35:48;3.20;;;1.40;;
36799;SDS011;22752;51.960;5.886;2022-07-03T07:38:15;5.47;;;1.35;;
36799;SDS011;22752;51.960;5.886;2022-07-03T07:40:41;3.35;;;1.20;;
36799;SDS011;22752;51.960;5.886;2022-07-03T07:43:09;5.40;;;1.65;;
36799;SDS011;22752;51.960;5.886;2022-07-03T07:45:35;4.88;;;1.70;;
36799;SDS011;22752;51.960;5.886;2022-07-03T07:48:01;4.38;;;1.30;;
36799;SDS011;22752;51.960;5.886;2022-07-03T07:50:30;4.53;;;1.50;;
36799;SDS011;22752;51.960;5.886;2022-07-03T07:52:55;3.50;;;1.30;;
36799;SDS011;22752;51.960;5.886;2022-07-03T07:55:21;4.10;;;1.40;;
36799;SDS011;22752;51.960;5.886;2022-07-03T07:57:47;3.70;;;1.27;;
36799;SDS011;22752;51.960;5.886;2022-07-03T08:00:17;3.33;;;1.10;;
36799;SDS011;22752;51.960;5.886;2022-07-03T08:02:44;3.35;;;1.30;;
36799;SDS011;22752;51.960;5.886;2022-07-03T08:05:29;6.53;;;1.55;;
36799;SDS011;22752;51.960;5.886;2022-07-03T08:10:37;5.68;;;1.38;;
36799;SDS011;22752;51.960;5.886;2022-07-03T08:13:08;3.85;;;1.30;;
36799;SDS011;22752;51.960;5.886;2022-07-03T08:15:35;3.95;;;1.60;;
36799;SDS011;22752;51.960;5.886;2022-07-03T08:18:00;6.60;;;1.48;;
36799;SDS011;22752;51.960;5.886;2022-07-03T08:20:27;6.45;;;1.77;;
36799;SDS011;22752;51.960;5.886;2022-07-03T08:22:53;2.95;;;1.17;;
36799;SDS011;22752;51.960;5.886;2022-07-03T08:25:19;6.05;;;1.38;;
36799;SDS011;22752;51.960;5.886;2022-07-03T08:27:45;3.78;;;1.52;;
36799;SDS011;22752;51.960;5.886;2022-07-03T08:30:12;4.07;;;1.27;;
36799;SDS011;22752;51.960;5.886;2022-07-03T08:32:43;3.75;;;1.65;;
36799;SDS011;22752;51.960;5.886;2022-07-03T08:35:10;1.52;;;1.00;;
36799;SDS011;22752;51.960;5.886;2022-07-03T08:37:36;2.75;;;1.15;;
36799;SDS011;22752;51.960;5.886;2022-07-03T08:40:02;3.50;;;1.15;;
36799;SDS011;22752;51.960;5.886;2022-07-03T08:42:28;3.20;;;1.10;;
36799;SDS011;22752;51.960;5.886;2022-07-03T08:44:57;2.15;;;1.15;;
36799;SDS011;22752;51.960;5.886;2022-07-03T08:47:24;1.75;;;1.08;;
36799;SDS011;22752;51.960;5.886;2022-07-03T08:49:53;3.28;;;1.15;;
36799;SDS011;22752;51.960;5.886;2022-07-03T08:52:20;1.73;;;1.00;;
36799;SDS011;22752;51.960;5.886;2022-07-03T08:54:47;5.07;;;1.40;;
36799;SDS011;22752;51.960;5.886;2022-07-03T08:57:13;2.17;;;1.17;;
36799;SDS011;22752;51.960;5.886;2022-07-03T08:59:40;1.92;;;1.20;;
36799;SDS011;22752;51.960;5.886;2022-07-03T09:02:07;4.88;;;1.20;;
36799;SDS011;22752;51.960;5.886;2022-07-03T09:04:33;4.05;;;1.10;;
36799;SDS011;22752;51.960;5.886;2022-07-03T09:06:59;2.95;;;1.48;;
36799;SDS011;22752;51.960;5.886;2022-07-03T09:09:26;2.97;;;1.33;;
36799;SDS011;22752;51.960;5.886;2022-07-03T09:11:52;2.55;;;1.30;;
36799;SDS011;22752;51.960;5.886;2022-07-03T09:14:18;1.77;;;0.95;;
36799;SDS011;22752;51.960;5.886;2022-07-03T09:16:45;4.03;;;1.13;;
36799;SDS011;22752;51.960;5.886;2022-07-03T09:19:10;1.92;;;1.00;;
36799;SDS011;22752;51.960;5.886;2022-07-03T09:21:40;6.10;;;1.83;;
36799;SDS011;22752;51.960;5.886;2022-07-03T09:24:08;2.88;;;1.23;;
36799;SDS011;22752;51.960;5.886;2022-07-03T09:26:35;2.55;;;0.90;;
36799;SDS011;22752;51.960;5.886;2022-07-03T09:29:01;6.15;;;1.20;;
36799;SDS011;22752;51.960;5.886;2022-07-03T09:31:29;3.83;;;1.30;;
36799;SDS011;22752;51.960;5.886;2022-07-03T09:36:38;2.75;;;1.20;;
36799;SDS011;22752;51.960;5.886;2022-07-03T09:39:20;2.85;;;1.30;;
36799;SDS011;22752;51.960;5.886;2022-07-03T09:44:37;2.35;;;1.10;;
36799;SDS011;22752;51.960;5.886;2022-07-03T09:49:43;4.20;;;1.10;;
36799;SDS011;22752;51.960;5.886;2022-07-03T09:57:34;3.25;;;1.00;;
36799;SDS011;22752;51.960;5.886;2022-07-03T10:05:28;2.13;;;0.98;;
36799;SDS011;22752;51.960;5.886;2022-07-03T10:07:58;3.50;;;1.20;;
36799;SDS011;22752;51.960;5.886;2022-07-03T10:10:26;3.15;;;1.20;;
36799;SDS011;22752;51.960;5.886;2022-07-03T10:13:02;5.65;;;1.48;;
36799;SDS011;22752;51.960;5.886;2022-07-03T10:15:30;3.40;;;0.88;;
36799;SDS011;22752;51.960;5.886;2022-07-03T10:17:58;3.05;;;1.30;;
36799;SDS011;22752;51.960;5.886;2022-07-03T10:20:30;4.60;;;1.17;;
36799;SDS011;22752;51.960;5.886;2022-07-03T10:23:00;2.90;;;1.40;;
36799;SDS011;22752;51.960;5.886;2022-07-03T10:25:33;3.65;;;1.10;;
36799;SDS011;22752;51.960;5.886;2022-07-03T10:28:00;3.17;;;1.30;;
36799;SDS011;22752;51.960;5.886;2022-07-03T10:30:27;2.65;;;1.02;;
36799;SDS011;22752;51.960;5.886;2022-07-03T10:32:53;4.07;;;1.50;;
36799;SDS011;22752;51.960;5.886;2022-07-03T10:35:21;2.90;;;1.20;;
36799;SDS011;22752;51.960;5.886;2022-07-03T10:43:26;4.65;;;1.35;;
36799;SDS011;22752;51.960;5.886;2022-07-03T10:46:17;3.28;;;1.23;;
36799;SDS011;22752;51.960;5.886;2022-07-03T10:48:56;2.65;;;1.08;;
36799;SDS011;22752;51.960;5.886;2022-07-03T10:51:22;2.22;;;1.00;;
36799;SDS011;22752;51.960;5.886;2022-07-03T10:53:48;2.13;;;1.00;;
36799;SDS011;22752;51.960;5.886;2022-07-03T10:56:14;3.08;;;1.20;;
36799;SDS011;22752;51.960;5.886;2022-07-03T10:58:57;3.95;;;1.33;;
36799;SDS011;22752;51.960;5.886;2022-07-03T11:01:31;3.28;;;1.10;;
36799;SDS011;22752;51.960;5.886;2022-07-03T11:04:00;4.22;;;1.23;;
36799;SDS011;22752;51.960;5.886;2022-07-03T11:09:12;3.92;;;1.42;;
36799;SDS011;22752;51.960;5.886;2022-07-03T11:14:29;2.10;;;0.85;;
36799;SDS011;22752;51.960;5.886;2022-07-03T11:19:43;6.30;;;1.10;;
36799;SDS011;22752;51.960;5.886;2022-07-03T11:22:30;1.73;;;1.02;;
36799;SDS011;22752;51.960;5.886;2022-07-03T11:25:06;2.55;;;1.00;;
36799;SDS011;22752;51.960;5.886;2022-07-03T11:27:34;3.00;;;1.10;;
36799;SDS011;22752;51.960;5.886;2022-07-03T11:29:59;2.35;;;0.90;;
36799;SDS011;22752;51.960;5.886;2022-07-03T11:38:31;4.57;;;1.15;;
36799;SDS011;22752;51.960;5.886;2022-07-03T11:40:58;4.15;;;1.10;;
36799;SDS011;22752;51.960;5.886;2022-07-03T11:43:24;1.92;;;1.00;;
36799;SDS011;22752;51.960;5.886;2022-07-03T11:45:50;2.83;;;1.27;;
36799;SDS011;22752;51.960;5.886;2022-07-03T11:48:17;2.75;;;1.33;;
36799;SDS011;22752;51.960;5.886;2022-07-03T11:50:45;1.67;;;1.02;;
36799;SDS011;22752;51.960;5.886;2022-07-03T11:53:25;2.28;;;1.08;;
36799;SDS011;22752;51.960;5.886;2022-07-03T12:01:13;1.75;;;0.82;;
36799;SDS011;22752;51.960;5.886;2022-07-03T12:04:03;2.53;;;1.08;;
36799;SDS011;22752;51.960;5.886;2022-07-03T12:09:11;3.10;;;1.30;;
36799;SDS011;22752;51.960;5.886;2022-07-03T12:11:38;1.88;;;0.82;;
36799;SDS011;22752;51.960;5.886;2022-07-03T12:14:04;2.35;;;0.90;;
36799;SDS011;22752;51.960;5.886;2022-07-03T12:16:34;2.83;;;1.00;;
36799;SDS011;22752;51.960;5.886;2022-07-03T12:19:06;7.45;;;1.50;;
36799;SDS011;22752;51.960;5.886;2022-07-03T12:24:08;2.63;;;1.00;;
36799;SDS011;22752;51.960;5.886;2022-07-03T12:26:35;2.50;;;1.10;;
36799;SDS011;22752;51.960;5.886;2022-07-03T12:29:12;2.08;;;0.90;;
36799;SDS011;22752;51.960;5.886;2022-07-03T12:31:39;1.98;;;1.00;;
36799;SDS011;22752;51.960;5.886;2022-07-03T12:34:05;2.85;;;1.02;;
36799;SDS011;22752;51.960;5.886;2022-07-03T12:36:31;2.88;;;1.10;;
36799;SDS011;22752;51.960;5.886;2022-07-03T12:39:00;2.60;;;1.20;;
36799;SDS011;22752;51.960;5.886;2022-07-03T12:41:26;1.95;;;1.10;;
36799;SDS011;22752;51.960;5.886;2022-07-03T12:43:53;3.50;;;1.35;;
36799;SDS011;22752;51.960;5.886;2022-07-03T12:48:55;2.75;;;1.10;;
36799;SDS011;22752;51.960;5.886;2022-07-03T12:51:44;1.70;;;0.93;;
36799;SDS011;22752;51.960;5.886;2022-07-03T12:56:43;1.67;;;1.10;;
36799;SDS011;22752;51.960;5.886;2022-07-03T12:59:25;1.60;;;0.98;;
36799;SDS011;22752;51.960;5.886;2022-07-03T13:02:02;1.88;;;0.82;;
36799;SDS011;22752;51.960;5.886;2022-07-03T13:04:29;7.55;;;1.25;;
36799;SDS011;22752;51.960;5.886;2022-07-03T13:07:04;3.80;;;1.10;;
36799;SDS011;22752;51.960;5.886;2022-07-03T13:09:31;1.95;;;1.00;;
36799;SDS011;22752;51.960;5.886;2022-07-03T13:12:01;1.33;;;0.70;;
36799;SDS011;22752;51.960;5.886;2022-07-03T13:14:27;2.55;;;0.80;;
36799;SDS011;22752;51.960;5.886;2022-07-03T13:16:54;1.20;;;0.82;;
36799;SDS011;22752;51.960;5.886;2022-07-03T13:19:25;2.88;;;0.80;;
36799;SDS011;22752;51.960;5.886;2022-07-03T13:21:56;5.20;;;0.90;;
36799;SDS011;22752;51.960;5.886;2022-07-03T13:24:25;1.48;;;0.90;;
36799;SDS011;22752;51.960;5.886;2022-07-03T13:26:51;3.97;;;0.80;;
36799;SDS011;22752;51.960;5.886;2022-07-03T13:29:18;3.03;;;1.10;;
36799;SDS011;22752;51.960;5.886;2022-07-03T13:31:45;2.38;;;0.93;;
36799;SDS011;22752;51.960;5.886;2022-07-03T13:34:11;3.22;;;1.10;;
36799;SDS011;22752;51.960;5.886;2022-07-03T13:36:37;1.92;;;0.90;;
36799;SDS011;22752;51.960;5.886;2022-07-03T13:39:02;2.78;;;0.93;;
36799;SDS011;22752;51.960;5.886;2022-07-03T13:41:29;2.40;;;0.80;;
36799;SDS011;22752;51.960;5.886;2022-07-03T13:43:55;2.50;;;1.05;;
36799;SDS011;22752;51.960;5.886;2022-07-03T13:46:21;2.28;;;1.13;;
36799;SDS011;22752;51.960;5.886;2022-07-03T13:48:47;1.90;;;1.00;;
36799;SDS011;22752;51.960;5.886;2022-07-03T13:51:13;1.15;;;0.80;;
36799;SDS011;22752;51.960;5.886;2022-07-03T13:53:39;3.47;;;1.00;;
36799;SDS011;22752;51.960;5.886;2022-07-03T13:56:05;3.10;;;1.27;;
36799;SDS011;22752;51.960;5.886;2022-07-03T13:58:31;3.03;;;1.02;;
36799;SDS011;22752;51.960;5.886;2022-07-03T14:00:57;2.30;;;0.90;;
36799;SDS011;22752;51.960;5.886;2022-07-03T14:03:24;2.08;;;1.08;;
36799;SDS011;22752;51.960;5.886;2022-07-03T14:05:49;1.55;;;0.90;;
36799;SDS011;22752;51.960;5.886;2022-07-03T14:08:19;2.08;;;1.15;;
36799;SDS011;22752;51.960;5.886;2022-07-03T14:10:45;1.52;;;0.90;;
36799;SDS011;22752;51.960;5.886;2022-07-03T14:13:11;2.33;;;1.10;;
36799;SDS011;22752;51.960;5.886;2022-07-03T14:15:37;1.92;;;1.02;;
36799;SDS011;22752;51.960;5.886;2022-07-03T14:18:03;4.55;;;1.20;;
36799;SDS011;22752;51.960;5.886;2022-07-03T14:20:29;1.95;;;0.90;;
36799;SDS011;22752;51.960;5.886;2022-07-03T14:22:54;2.60;;;1.15;;
36799;SDS011;22752;51.960;5.886;2022-07-03T14:25:20;2.38;;;1.10;;
36799;SDS011;22752;51.960;5.886;2022-07-03T14:27:46;3.45;;;1.48;;
36799;SDS011;22752;51.960;5.886;2022-07-03T14:30:30;2.35;;;1.20;;
36799;SDS011;22752;51.960;5.886;2022-07-03T14:33:14;2.97;;;1.10;;
36799;SDS011;22752;51.960;5.886;2022-07-03T14:35:40;2.83;;;1.17;;
36799;SDS011;22752;51.960;5.886;2022-07-03T14:38:05;1.63;;;0.98;;
36799;SDS011;22752;51.960;5.886;2022-07-03T14:40:31;2.13;;;1.20;;
36799;SDS011;22752;51.960;5.886;2022-07-03T14:42:57;2.75;;;1.13;;
36799;SDS011;22752;51.960;5.886;2022-07-03T14:45:23;3.55;;;1.00;;
36799;SDS011;22752;51.960;5.886;2022-07-03T14:47:49;3.10;;;1.20;;
36799;SDS011;22752;51.960;5.886;2022-07-03T14:50:15;2.78;;;1.10;;
36799;SDS011;22752;51.960;5.886;2022-07-03T14:52:41;3.65;;;1.10;;
36799;SDS011;22752;51.960;5.886;2022-07-03T14:55:07;4.07;;;1.40;;
36799;SDS011;22752;51.960;5.886;2022-07-03T15:00:22;3.13;;;1.20;;
36799;SDS011;22752;51.960;5.886;2022-07-03T15:03:03;2.40;;;1.25;;
36799;SDS011;22752;51.960;5.886;2022-07-03T15:05:40;1.52;;;1.13;;
36799;SDS011;22752;51.960;5.886;2022-07-03T15:11:01;4.72;;;1.60;;
36799;SDS011;22752;51.960;5.886;2022-07-03T15:13:32;4.75;;;1.60;;
36799;SDS011;22752;51.960;5.886;2022-07-03T15:15:59;2.75;;;1.10;;
36799;SDS011;22752;51.960;5.886;2022-07-03T15:18:25;3.28;;;1.10;;
36799;SDS011;22752;51.960;5.886;2022-07-03T15:20:53;3.97;;;1.20;;
36799;SDS011;22752;51.960;5.886;2022-07-03T15:23:20;2.78;;;1.20;;
36799;SDS011;22752;51.960;5.886;2022-07-03T15:25:46;4.53;;;1.40;;
36799;SDS011;22752;51.960;5.886;2022-07-03T15:28:13;3.40;;;1.20;;
36799;SDS011;22752;51.960;5.886;2022-07-03T15:30:50;2.03;;;1.05;;
36799;SDS011;22752;51.960;5.886;2022-07-03T15:33:18;5.07;;;1.30;;
36799;SDS011;22752;51.960;5.886;2022-07-03T15:35:54;3.83;;;1.10;;
36799;SDS011;22752;51.960;5.886;2022-07-03T15:38:27;2.72;;;1.20;;
36799;SDS011;22752;51.960;5.886;2022-07-03T15:41:02;3.33;;;1.38;;
36799;SDS011;22752;51.960;5.886;2022-07-03T15:49:15;3.63;;;1.17;;
36799;SDS011;22752;51.960;5.886;2022-07-03T15:54:52;1.75;;;1.10;;
36799;SDS011;22752;51.960;5.886;2022-07-03T16:00:27;3.03;;;1.25;;
36799;SDS011;22752;51.960;5.886;2022-07-03T16:03:12;4.32;;;1.30;;
36799;SDS011;22752;51.960;5.886;2022-07-03T16:05:41;5.13;;;2.25;;
36799;SDS011;22752;51.960;5.886;2022-07-03T16:08:12;3.13;;;1.20;;
36799;SDS011;22752;51.960;5.886;2022-07-03T16:10:39;2.13;;;0.90;;
36799;SDS011;22752;51.960;5.886;2022-07-03T16:13:06;2.45;;;1.10;;
36799;SDS011;22752;51.960;5.886;2022-07-03T16:15:39;6.43;;;1.40;;
36799;SDS011;22752;51.960;5.886;2022-07-03T16:18:06;1.27;;;1.00;;
36799;SDS011;22752;51.960;5.886;2022-07-03T16:20:33;3.45;;;1.20;;
36799;SDS011;22752;51.960;5.886;2022-07-03T16:23:00;2.45;;;1.30;;
36799;SDS011;22752;51.960;5.886;2022-07-03T16:25:28;3.38;;;1.10;;
36799;SDS011;22752;51.960;5.886;2022-07-03T16:27:56;3.63;;;1.13;;
36799;SDS011;22752;51.960;5.886;2022-07-03T16:30:25;3.40;;;1.00;;
36799;SDS011;22752;51.960;5.886;2022-07-03T16:32:51;3.33;;;1.20;;
36799;SDS011;22752;51.960;5.886;2022-07-03T16:35:21;3.03;;;1.10;;
36799;SDS011;22752;51.960;5.886;2022-07-03T16:37:55;2.15;;;1.05;;
36799;SDS011;22752;51.960;5.886;2022-07-03T16:40:23;4.63;;;0.98;;
36799;SDS011;22752;51.960;5.886;2022-07-03T16:42:52;1.98;;;1.00;;